Ana Sayfa
METAR-TAF:

METAR-TAF

Havaalanları :

Wallis, Fransa

Enlem: 13-14S, Boylam: 176-10W, yükseklik: 23 m

METAR: eksik

Saat: 12:01 (00:01 UTC)

Tahmin

Rapor saat 23:00 UTC de 1 saat ve 1 dakika önce yapıldı.
Ayın 26'si saat 00 UTC'den ayın 26'si saat 24 UTC'ye kadar geçerli Tahmin
Rüzgar doğu/güneydoğudan 5 kt
Görüş mesafesi 10 km veya daha fazla
1800 ft yükseklikte parçalı bulutlu
3000 ft yükseklikte parçalı çok bulutlu
Olasılık 30%
ayın 26'si saat 03 UTC'den ayın 26'si saat 24 UTC'ye kadar
Rüzgar doğudan 15 kt ve 25 kt'a kadar ani rüzgarlar
Görüş mesafesi: 4000 m
1400 ft yükseklikte parçalı çok bulutlu
2000 ft yükseklikte parçalı bulutlu, Yükselen kümülüs.
sağanak yağmurlar

TAF: NLWW 252300Z 2600/2624 12005KT 9999 SCT018 BKN030 PROB30 2603/2624 10015G25KT 4000 SHRA BKN014 SCT020TCU

4.000'den fazla havaalanı için hava durumu gözlemleri ve tahminleri (METAR ve TAF raporları).

Kullanılabilir istasyonlar harita üzerinde sarı ve kırmızı noktalarla gösterilir.

İstasyonun adını görmek için fareyi noktanın üzerinde gezdirin.

Sonrasında hava gözlem ve tahminlerini görmek için tıklayın.

Haritayı değiştirmek için: yaklaştırmak için siyah artı işaretli yeşil düğmeye ve uzaklaştırmak için de eksi işaretli düğmeye hızla tıklayın; bitişik haritalar için yeşil okları kullanın.


METAR-TAF: